aviador You're here:

LEVC Decoded Metar

VALENCIA in SPAIN
Report Time2017-04-26 03:30:00
UTC Time2017-04-26 04:02:03
Flight Rules vfr VFR
WindVRB at 02 kt
Visibility9999 m
Phenomena:N/A
Clouds:Few 025 Hf
CeilingNone
Temp14°C (ISA -1)
Dew Point14°C (100% RH)
QNH1005 hPa
Density Alt617 ft
Elevation203 ft
Report Wrong Elevation
Raw Report
METAR LEVC 260330Z VRB02KT 9999 FEW025 14/14 Q1005 NOSIG=

Extra information for LEVC:More info

Metar Taf Metar & Taf Last 4 Metars F.Rules Stats Wind Profile Meteogram Temp Stats Airport Information Weather charts Add Link Nearby VenuesMetar ALERT Operation Metar Decoded Social comments

Webcam Valencia